Time;durP1;ratioP1;P1;durP2;ratioP2;P2;SDS_P1;SDS_P2;PMS_P1;PMS_P2;Temp;Humidity;BMP_temperature;BMP_pressure;BME280_temperature;BME280_humidity;BME280_pressure;Samples;Min_cycle;Max_cycle;Signal;HPM_P1;HPM_P2
2021/11/23 00:00:09;;;;;;;2.07;1.57;;;3.60;99.00;;;;;;5073479;28;20032;-74
2021/11/23 00:02:36;;;;;;;2.22;1.40;;;3.50;98.80;;;;;;5074427;28;20031;-73
2021/11/23 00:05:03;;;;;;;2.27;1.23;;;3.50;98.80;;;;;;5072652;28;20031;-74
2021/11/23 00:07:29;;;;;;;2.03;1.10;;;3.50;98.80;;;;;;5074254;28;20036;-74
2021/11/23 00:09:54;;;;;;;2.17;1.17;;;3.50;98.90;;;;;;5092316;28;20043;-74
2021/11/23 00:12:20;;;;;;;1.50;0.90;;;3.40;98.90;;;;;;5075009;28;20039;-73
2021/11/23 00:14:46;;;;;;;2.90;1.23;;;3.40;98.90;;;;;;5092658;28;20020;-75
2021/11/23 00:17:12;;;;;;;1.83;1.40;;;3.40;98.90;;;;;;5073824;28;20364;-75
2021/11/23 00:19:37;;;;;;;2.97;1.30;;;3.40;99.00;;;;;;5092422;28;20020;-75
2021/11/23 00:22:03;;;;;;;1.90;1.10;;;3.30;99.10;;;;;;5073569;28;20372;-75
2021/11/23 00:24:29;;;;;;;3.67;1.27;;;3.30;99.00;;;;;;5075408;28;20019;-74
2021/11/23 00:26:55;;;;;;;1.33;0.93;;;3.30;99.10;;;;;;5073509;28;20038;-76
2021/11/23 00:29:21;;;;;;;1.90;1.23;;;3.20;99.20;;;;;;5074228;28;20488;-75
2021/11/23 00:31:46;;;;;;;6.40;1.70;;;3.20;99.30;;;;;;5088067;28;20016;-76
2021/11/23 00:34:12;;;;;;;3.73;1.30;;;3.20;99.30;;;;;;5066235;28;20456;-75
2021/11/23 00:36:38;;;;;;;2.43;1.33;;;3.20;99.30;;;;;;5088369;28;20533;-74
2021/11/23 00:39:04;;;;;;;2.60;1.50;;;3.10;99.20;;;;;;5073880;28;20026;-74
2021/11/23 00:41:30;;;;;;;3.70;1.60;;;3.10;99.50;;;;;;5073817;28;20028;-74
2021/11/23 00:43:55;;;;;;;3.10;1.50;;;3.10;99.40;;;;;;5073335;28;20077;-75
2021/11/23 00:46:21;;;;;;;3.80;1.67;;;3.10;99.70;;;;;;5091213;28;20110;-74
2021/11/23 00:48:47;;;;;;;2.43;1.60;;;3.00;99.50;;;;;;5072991;28;20020;-74
2021/11/23 00:51:13;;;;;;;2.87;1.83;;;3.00;99.70;;;;;;5091869;28;20107;-74
2021/11/23 00:53:39;;;;;;;3.23;1.37;;;2.90;99.60;;;;;;5073739;28;20016;-74
2021/11/23 00:56:06;;;;;;;2.67;1.33;;;2.90;99.90;;;;;;5070570;28;20364;-73
2021/11/23 00:58:32;;;;;;;2.20;1.23;;;2.90;99.50;;;;;;5064107;28;20040;-73
2021/11/23 01:00:58;;;;;;;3.00;1.40;;;2.90;99.60;;;;;;5091673;28;20024;-74
2021/11/23 01:03:24;;;;;;;2.47;1.30;;;2.90;99.60;;;;;;5092047;28;20024;-74
2021/11/23 01:05:50;;;;;;;4.27;1.80;;;2.90;99.70;;;;;;5073605;28;20020;-74
2021/11/23 01:08:17;;;;;;;3.50;1.77;;;2.80;99.70;;;;;;5073616;28;20028;-73
2021/11/23 01:10:44;;;;;;;4.17;2.00;;;2.80;99.70;;;;;;5058046;28;20023;-74
2021/11/23 01:13:10;;;;;;;3.10;1.50;;;2.80;99.80;;;;;;5073727;28;20373;-74
2021/11/23 01:15:36;;;;;;;3.47;1.40;;;2.80;99.90;;;;;;5074142;28;20020;-74
2021/11/23 01:18:03;;;;;;;2.93;1.60;;;2.80;99.80;;;;;;5074390;28;20500;-74
2021/11/23 01:20:29;;;;;;;4.07;1.80;;;2.80;99.90;;;;;;5074747;28;20527;-74
2021/11/23 01:22:57;;;;;;;3.83;2.20;;;2.70;99.90;;;;;;5074019;28;20032;-74
2021/11/23 01:25:23;;;;;;;3.73;1.70;;;2.70;99.90;;;;;;5092649;28;20032;-73
2021/11/23 01:27:49;;;;;;;3.37;1.80;;;2.70;99.80;;;;;;5074133;28;20197;-74
2021/11/23 01:30:14;;;;;;;3.10;1.80;;;2.70;99.70;;;;;;5076525;28;20386;-75
2021/11/23 01:32:41;;;;;;;3.17;1.70;;;2.60;99.90;;;;;;5078030;28;20039;-73
2021/11/23 01:35:08;;;;;;;3.33;1.50;;;2.60;99.90;;;;;;5077682;28;20074;-74
2021/11/23 01:37:34;;;;;;;2.83;1.63;;;2.50;99.90;;;;;;5078101;28;20032;-75
2021/11/23 01:40:00;;;;;;;3.17;1.40;;;2.60;99.90;;;;;;5077843;28;20032;-76
2021/11/23 01:42:26;;;;;;;3.67;1.80;;;2.60;99.90;;;;;;5078314;28;20461;-75
2021/11/23 01:44:52;;;;;;;3.53;1.40;;;2.60;99.90;;;;;;5077786;28;20038;-76
2021/11/23 01:47:18;;;;;;;3.13;1.60;;;2.60;99.90;;;;;;5096304;28;20024;-75
2021/11/23 01:49:43;;;;;;;2.73;1.50;;;2.60;99.90;;;;;;5077683;28;20027;-75
2021/11/23 01:52:09;;;;;;;5.13;2.10;;;2.60;99.90;;;;;;5077819;28;20103;-76
2021/11/23 01:54:36;;;;;;;2.20;1.60;;;2.60;99.90;;;;;;5096226;28;20023;-75
2021/11/23 01:57:02;;;;;;;8.13;3.80;;;2.50;99.90;;;;;;5095899;28;20024;-76
2021/11/23 01:59:28;;;;;;;3.90;1.77;;;2.60;99.90;;;;;;5095985;28;20070;-75
2021/11/23 02:01:54;;;;;;;3.80;1.60;;;2.50;99.90;;;;;;5077274;28;20031;-74
2021/11/23 02:04:19;;;;;;;3.10;1.60;;;2.50;99.90;;;;;;5095754;28;20392;-74
2021/11/23 02:06:45;;;;;;;4.40;1.60;;;2.40;99.90;;;;;;5077633;28;20114;-74
2021/11/23 02:09:10;;;;;;;2.90;1.37;;;2.40;99.90;;;;;;5077208;28;20516;-75
2021/11/23 02:11:36;;;;;;;2.90;1.47;;;2.40;99.90;;;;;;5095786;28;20016;-75
2021/11/23 02:14:03;;;;;;;7.03;1.77;;;2.40;99.90;;;;;;5077504;28;20020;-76
2021/11/23 02:16:30;;;;;;;2.93;1.60;;;2.50;99.90;;;;;;5077949;28;20027;-76
2021/11/23 02:18:56;;;;;;;5.00;1.80;;;2.40;99.90;;;;;;5076978;28;20118;-76
2021/11/23 02:21:21;;;;;;;3.23;1.80;;;2.50;99.90;;;;;;5077755;28;20055;-76
2021/11/23 02:23:47;;;;;;;4.10;1.70;;;2.50;99.90;;;;;;5077508;28;20115;-76
2021/11/23 02:26:12;;;;;;;2.17;1.50;;;2.40;99.90;;;;;;5077132;28;20050;-76
2021/11/23 02:28:38;;;;;;;4.00;1.50;;;2.40;99.90;;;;;;5077609;28;20028;-75
2021/11/23 02:31:06;;;;;;;3.60;1.77;;;2.40;99.90;;;;;;5095086;28;20020;-75
2021/11/23 02:33:32;;;;;;;5.23;1.40;;;2.30;99.90;;;;;;5095274;28;20506;-75
2021/11/23 02:36:03;;;;;;;3.47;1.90;;;2.30;99.90;;;;;;5077201;28;20107;-75
2021/11/23 02:38:30;;;;;;;2.23;1.77;;;2.30;99.90;;;;;;5095623;28;20019;-75
2021/11/23 02:40:56;;;;;;;2.90;1.67;;;2.20;99.90;;;;;;5076783;28;20023;-76
2021/11/23 02:43:22;;;;;;;3.17;1.80;;;2.20;99.90;;;;;;5095371;28;20027;-75
2021/11/23 02:45:48;;;;;;;4.23;1.87;;;2.20;99.90;;;;;;5095507;28;20017;-75
2021/11/23 02:48:14;;;;;;;2.77;1.70;;;2.10;99.90;;;;;;5076629;28;20043;-75
2021/11/23 02:50:44;;;;;;;2.27;1.60;;;2.10;99.90;;;;;;5077130;28;20024;-75
2021/11/23 02:53:10;;;;;;;3.97;1.83;;;2.00;99.90;;;;;;5076901;28;20384;-75
2021/11/23 02:55:36;;;;;;;2.93;1.87;;;2.00;99.90;;;;;;5089508;28;20026;-76
2021/11/23 02:58:05;;;;;;;3.63;2.07;;;2.00;99.90;;;;;;5076128;28;20515;-76
2021/11/23 03:00:32;;;;;;;3.27;1.50;;;1.90;99.90;;;;;;5076918;28;20027;-76
2021/11/23 03:02:58;;;;;;;3.40;1.73;;;1.90;99.90;;;;;;5076288;28;20032;-76
2021/11/23 03:05:26;;;;;;;4.87;2.13;;;1.90;99.90;;;;;;5076799;28;20031;-76
2021/11/23 03:07:53;;;;;;;4.90;2.03;;;1.80;99.90;;;;;;5094348;28;20028;-77
2021/11/23 03:10:20;;;;;;;4.80;2.03;;;1.80;99.90;;;;;;5076930;28;20020;-76
2021/11/23 03:12:48;;;;;;;3.70;1.90;;;1.90;99.90;;;;;;5094837;28;20049;-76
2021/11/23 03:15:14;;;;;;;4.23;1.83;;;1.90;99.90;;;;;;5076411;28;20028;-76
2021/11/23 03:17:41;;;;;;;3.80;1.80;;;1.90;99.90;;;;;;5076734;28;20041;-75
2021/11/23 03:20:09;;;;;;;4.30;2.10;;;1.90;99.90;;;;;;5076043;28;20449;-76
2021/11/23 03:22:35;;;;;;;3.00;1.90;;;1.90;99.90;;;;;;5076642;28;20032;-76
2021/11/23 03:25:01;;;;;;;3.57;1.83;;;1.90;99.90;;;;;;5076130;28;20032;-76
2021/11/23 03:27:27;;;;;;;3.63;2.10;;;1.90;99.90;;;;;;5094321;28;20111;-75
2021/11/23 03:29:53;;;;;;;3.77;2.23;;;1.80;99.90;;;;;;5075713;28;20449;-76
2021/11/23 03:32:20;;;;;;;3.50;2.00;;;1.80;99.90;;;;;;5075956;28;20035;-74
2021/11/23 03:34:47;;;;;;;3.90;2.00;;;1.90;99.90;;;;;;5075885;28;20024;-74
2021/11/23 03:37:16;;;;;;;2.70;1.73;;;1.80;99.90;;;;;;5075595;28;20073;-75
2021/11/23 03:39:42;;;;;;;3.27;2.00;;;1.70;99.90;;;;;;5075827;28;20020;-75
2021/11/23 03:42:08;;;;;;;3.03;2.27;;;1.70;99.90;;;;;;5075311;28;20028;-74
2021/11/23 03:44:35;;;;;;;4.30;2.20;;;1.80;99.90;;;;;;5093208;28;20038;-74
2021/11/23 03:47:03;;;;;;;3.70;1.90;;;1.70;99.90;;;;;;5074904;28;20019;-74
2021/11/23 03:49:28;;;;;;;3.30;1.83;;;1.70;99.90;;;;;;5094048;28;20110;-75
2021/11/23 03:51:55;;;;;;;4.33;1.83;;;1.70;99.90;;;;;;5074576;28;20469;-77
2021/11/23 03:54:22;;;;;;;2.77;1.53;;;1.70;99.90;;;;;;5090325;28;20020;-75
2021/11/23 03:56:48;;;;;;;3.47;1.67;;;1.70;99.90;;;;;;5073345;28;20028;-74
2021/11/23 03:59:14;;;;;;;3.70;1.53;;;1.70;99.90;;;;;;5051491;28;20063;-75
2021/11/23 04:01:40;;;;;;;3.47;1.60;;;1.80;99.90;;;;;;5053074;28;20088;-75
2021/11/23 04:04:06;;;;;;;4.07;1.70;;;1.80;99.90;;;;;;5051622;28;20032;-76
2021/11/23 04:06:31;;;;;;;6.50;1.77;;;1.70;99.90;;;;;;5053667;28;20024;-75
2021/11/23 04:08:57;;;;;;;2.80;1.30;;;1.80;99.90;;;;;;5051859;28;20025;-77
2021/11/23 04:11:23;;;;;;;1.80;1.30;;;1.70;99.90;;;;;;5053695;28;20027;-76
2021/11/23 04:13:48;;;;;;;3.87;1.73;;;1.70;99.90;;;;;;5052317;28;20017;-76
2021/11/23 04:16:16;;;;;;;3.27;1.70;;;1.70;99.90;;;;;;5053230;28;20361;-76
2021/11/23 04:18:42;;;;;;;3.47;1.70;;;1.60;99.90;;;;;;5052257;28;20469;-76
2021/11/23 04:21:08;;;;;;;3.47;1.50;;;1.60;99.90;;;;;;5053221;28;20412;-76
2021/11/23 04:23:34;;;;;;;3.47;1.70;;;1.60;99.90;;;;;;5052243;28;20025;-76
2021/11/23 04:26:01;;;;;;;4.93;1.60;;;1.50;99.90;;;;;;5051996;28;20029;-76
2021/11/23 04:28:27;;;;;;;2.73;1.40;;;1.50;99.90;;;;;;5052210;28;20024;-75
2021/11/23 04:30:52;;;;;;;3.00;1.60;;;1.50;99.90;;;;;;5052192;28;20028;-76
2021/11/23 04:33:18;;;;;;;3.13;1.70;;;1.40;99.90;;;;;;5051757;28;20028;-76
2021/11/23 04:35:44;;;;;;;2.17;1.50;;;1.40;99.90;;;;;;5052473;28;20017;-76
2021/11/23 04:38:10;;;;;;;4.80;1.53;;;1.50;99.90;;;;;;5051821;28;20032;-76
2021/11/23 04:40:36;;;;;;;2.77;1.80;;;1.40;99.90;;;;;;5051834;28;20071;-74
2021/11/23 04:43:05;;;;;;;3.33;1.80;;;1.50;99.90;;;;;;5051341;28;20416;-75
2021/11/23 04:45:31;;;;;;;3.73;1.67;;;1.40;99.90;;;;;;5051781;28;20537;-75
2021/11/23 04:47:57;;;;;;;3.70;1.87;;;1.40;99.90;;;;;;5051612;28;20059;-75
2021/11/23 04:50:22;;;;;;;4.43;1.53;;;1.40;99.90;;;;;;5050625;28;20048;-75
2021/11/23 04:52:49;;;;;;;2.77;1.70;;;1.40;99.90;;;;;;5051507;28;20021;-75
2021/11/23 04:55:15;;;;;;;5.17;2.00;;;1.30;99.90;;;;;;5062824;28;20016;-75
2021/11/23 04:57:40;;;;;;;5.33;1.97;;;1.30;99.90;;;;;;5071564;28;20036;-74
2021/11/23 05:00:10;;;;;;;3.23;1.83;;;1.20;99.90;;;;;;5073930;28;20016;-74
2021/11/23 05:02:35;;;;;;;3.20;1.87;;;1.20;99.90;;;;;;5074305;28;20036;-74
2021/11/23 05:05:01;;;;;;;3.13;1.77;;;1.10;99.90;;;;;;5094199;28;20374;-75
2021/11/23 05:07:27;;;;;;;4.07;1.90;;;1.10;99.90;;;;;;5097010;28;20380;-74
2021/11/23 05:09:53;;;;;;;4.70;2.13;;;1.10;99.90;;;;;;5078880;28;20536;-74
2021/11/23 05:12:20;;;;;;;3.13;1.80;;;1.20;99.90;;;;;;5096312;28;20161;-75
2021/11/23 05:14:46;;;;;;;3.70;2.10;;;1.20;99.90;;;;;;5075443;28;20024;-74
2021/11/23 05:17:12;;;;;;;4.60;2.20;;;1.20;99.90;;;;;;5096392;28;20034;-76
2021/11/23 05:19:38;;;;;;;5.07;2.00;;;1.20;99.90;;;;;;5097102;28;20024;-75
2021/11/23 05:22:04;;;;;;;2.50;1.93;;;1.20;99.90;;;;;;5078338;28;20111;-76
2021/11/23 05:24:30;;;;;;;3.33;2.03;;;1.20;99.90;;;;;;5079261;28;20031;-75
2021/11/23 05:26:55;;;;;;;7.17;2.27;;;1.20;99.90;;;;;;5078632;28;20024;-75
2021/11/23 05:29:21;;;;;;;3.57;2.50;;;1.10;99.90;;;;;;5078143;28;20024;-75
2021/11/23 05:31:47;;;;;;;4.13;2.40;;;1.10;99.90;;;;;;5096408;28;20149;-75
2021/11/23 05:34:12;;;;;;;3.53;1.90;;;1.10;99.90;;;;;;5096090;28;20020;-76
2021/11/23 05:36:38;;;;;;;4.33;2.10;;;1.20;99.90;;;;;;5078573;28;20031;-75
2021/11/23 05:39:05;;;;;;;3.83;2.00;;;1.20;99.90;;;;;;5095884;28;20024;-75
2021/11/23 05:41:31;;;;;;;6.27;1.80;;;1.20;99.90;;;;;;5078232;28;20024;-75
2021/11/23 05:43:56;;;;;;;3.27;1.90;;;1.20;99.90;;;;;;5096113;28;20483;-75
2021/11/23 05:46:22;;;;;;;4.33;2.73;;;1.10;99.90;;;;;;5066802;28;20472;-74
2021/11/23 05:48:48;;;;;;;5.40;2.67;;;1.10;99.90;;;;;;5075923;28;20024;-74
2021/11/23 05:51:13;;;;;;;5.10;2.60;;;1.20;99.90;;;;;;5075409;28;20020;-75
2021/11/23 05:53:40;;;;;;;4.70;2.43;;;1.20;99.90;;;;;;5076112;28;20085;-75
2021/11/23 05:56:06;;;;;;;5.80;2.43;;;1.20;99.90;;;;;;5074669;28;20023;-75
2021/11/23 05:58:32;;;;;;;8.53;2.60;;;1.20;99.90;;;;;;5074371;28;20044;-74
2021/11/23 06:00:58;;;;;;;3.63;2.40;;;1.20;99.90;;;;;;5080462;28;20047;-75
2021/11/23 06:03:24;;;;;;;3.50;1.90;;;1.20;99.90;;;;;;5071743;28;20035;-73
2021/11/23 06:05:50;;;;;;;4.13;2.30;;;1.20;99.90;;;;;;5093710;28;20413;-73
2021/11/23 06:08:15;;;;;;;3.20;2.07;;;1.20;99.90;;;;;;5075184;28;20518;-74
2021/11/23 06:10:41;;;;;;;4.33;2.53;;;1.20;99.90;;;;;;5076240;28;20024;-74
2021/11/23 06:13:09;;;;;;;3.93;2.30;;;1.20;99.90;;;;;;5075515;28;20020;-74
2021/11/23 06:15:34;;;;;;;2.77;2.00;;;1.20;99.90;;;;;;5093909;28;20016;-73
2021/11/23 06:18:02;;;;;;;6.27;2.47;;;1.20;99.90;;;;;;5075839;28;20055;-73
2021/11/23 06:20:31;;;;;;;4.60;2.23;;;1.10;99.90;;;;;;5093434;28;20012;-73
2021/11/23 06:22:59;;;;;;;6.00;2.90;;;1.10;99.90;;;;;;5060570;28;20528;-77
2021/11/23 06:25:25;;;;;;;7.60;2.90;;;1.10;99.90;;;;;;5076855;28;20046;-74
2021/11/23 06:27:51;;;;;;;5.57;3.10;;;1.10;99.90;;;;;;5085277;28;20026;-77
2021/11/23 06:30:17;;;;;;;7.47;3.20;;;1.10;99.90;;;;;;5087759;28;20032;-73
2021/11/23 06:32:43;;;;;;;5.63;2.90;;;1.20;99.90;;;;;;5072146;28;20025;-73
2021/11/23 06:35:08;;;;;;;4.47;2.77;;;1.20;99.90;;;;;;5093162;28;20073;-73
2021/11/23 06:37:35;;;;;;;3.57;2.07;;;1.10;99.90;;;;;;5075081;28;20583;-73
2021/11/23 06:40:00;;;;;;;4.27;2.20;;;1.10;99.90;;;;;;5075272;28;20055;-73
2021/11/23 06:42:26;;;;;;;3.70;2.00;;;1.20;99.90;;;;;;5074899;28;20445;-73
2021/11/23 06:44:52;;;;;;;3.77;2.50;;;1.20;99.90;;;;;;5093284;28;20023;-73
2021/11/23 06:47:18;;;;;;;4.80;2.20;;;1.10;99.90;;;;;;5074332;28;20016;-73
2021/11/23 06:49:44;;;;;;;4.60;2.23;;;1.10;99.90;;;;;;5093050;28;20035;-73
2021/11/23 06:52:10;;;;;;;5.33;2.40;;;1.20;99.90;;;;;;5074393;28;20031;-74
2021/11/23 06:54:37;;;;;;;2.87;2.03;;;1.20;99.90;;;;;;5074853;28;20476;-74
2021/11/23 06:57:02;;;;;;;3.30;1.97;;;1.20;99.90;;;;;;5074770;28;20026;-73
2021/11/23 06:59:28;;;;;;;3.40;2.20;;;1.10;99.90;;;;;;5052710;28;1151550;-73
2021/11/23 07:01:54;;;;;;;3.90;2.27;;;1.20;99.90;;;;;;5075639;28;20024;-73
2021/11/23 07:04:20;;;;;;;4.93;2.30;;;1.20;99.90;;;;;;5075981;28;20032;-72
2021/11/23 07:06:48;;;;;;;3.50;2.37;;;1.20;99.90;;;;;;5076419;28;20032;-73
2021/11/23 07:09:14;;;;;;;4.27;2.50;;;1.20;99.90;;;;;;5094204;28;20024;-73
2021/11/23 07:11:40;;;;;;;5.07;2.50;;;1.20;99.90;;;;;;5094515;28;20449;-73
2021/11/23 07:14:06;;;;;;;4.63;2.90;;;1.20;99.90;;;;;;5075991;28;20141;-73
2021/11/23 07:16:35;;;;;;;4.37;2.53;;;1.20;99.90;;;;;;5094431;28;20024;-73
2021/11/23 07:19:02;;;;;;;5.37;2.83;;;1.20;99.90;;;;;;5076139;28;20024;-73
2021/11/23 07:21:27;;;;;;;3.97;2.70;;;1.20;99.90;;;;;;5075720;28;20020;-73
2021/11/23 07:23:53;;;;;;;4.63;2.77;;;1.20;99.90;;;;;;5094083;28;20023;-72
2021/11/23 07:26:19;;;;;;;4.60;2.63;;;1.30;99.90;;;;;;5075144;28;20020;-73
2021/11/23 07:28:45;;;;;;;3.87;2.40;;;1.30;99.90;;;;;;5093658;28;20028;-73
2021/11/23 07:31:10;;;;;;;4.70;2.77;;;1.30;99.90;;;;;;5075356;28;20024;-73
2021/11/23 07:33:36;;;;;;;4.07;3.00;;;1.30;99.90;;;;;;5093999;28;20024;-73
2021/11/23 07:36:02;;;;;;;4.43;2.60;;;1.30;99.90;;;;;;5094247;28;20043;-73
2021/11/23 07:38:28;;;;;;;4.60;3.00;;;1.30;99.90;;;;;;5075204;28;20020;-73
2021/11/23 07:40:53;;;;;;;3.73;2.67;;;1.30;99.90;;;;;;5094099;28;20107;-73
2021/11/23 07:43:19;;;;;;;5.07;2.83;;;1.40;99.90;;;;;;5093107;28;20016;-72
2021/11/23 07:45:44;;;;;;;5.20;2.60;;;1.30;99.90;;;;;;5093625;28;20020;-73
2021/11/23 07:48:10;;;;;;;4.10;2.50;;;1.30;99.90;;;;;;5075162;28;20031;-73
2021/11/23 07:50:37;;;;;;;5.93;3.10;;;1.30;99.90;;;;;;5075690;28;20080;-73
2021/11/23 07:53:04;;;;;;;5.43;2.87;;;1.30;99.90;;;;;;5093732;28;20095;-74
2021/11/23 07:55:29;;;;;;;8.13;2.90;;;1.50;99.90;;;;;;5074891;28;20024;-73
2021/11/23 07:57:55;;;;;;;4.73;2.90;;;1.50;99.90;;;;;;5075199;28;20047;-73
2021/11/23 08:00:23;;;;;;;8.03;3.00;;;1.60;99.90;;;;;;5074482;28;20088;-73
2021/11/23 08:02:49;;;;;;;6.13;3.03;;;1.60;99.90;;;;;;5092396;28;20057;-72
2021/11/23 08:05:15;;;;;;;3.63;2.50;;;1.50;99.90;;;;;;5074778;28;20024;-73
2021/11/23 08:07:41;;;;;;;4.90;3.07;;;1.50;99.90;;;;;;5093279;28;20043;-72
2021/11/23 08:10:07;;;;;;;7.03;2.83;;;1.60;99.90;;;;;;5092146;28;20024;-73
2021/11/23 08:12:33;;;;;;;7.60;3.27;;;1.50;99.90;;;;;;5093537;28;20020;-73
2021/11/23 08:14:59;;;;;;;4.43;2.80;;;1.60;99.90;;;;;;5086814;28;20030;-74
2021/11/23 08:17:25;;;;;;;6.57;3.40;;;1.60;99.90;;;;;;5074157;28;20024;-73
2021/11/23 08:19:51;;;;;;;6.10;2.70;;;1.60;99.90;;;;;;5075015;28;20376;-72
2021/11/23 08:22:16;;;;;;;5.27;3.13;;;1.60;99.90;;;;;;5092512;28;20091;-73
2021/11/23 08:24:42;;;;;;;8.20;3.03;;;1.70;99.90;;;;;;5075066;28;20026;-73
2021/11/23 08:27:09;;;;;;;7.10;2.97;;;1.70;99.90;;;;;;5073678;28;20085;-75
2021/11/23 08:29:35;;;;;;;5.27;2.97;;;1.70;99.90;;;;;;5074661;28;20023;-73
2021/11/23 08:32:01;;;;;;;4.73;3.00;;;1.70;99.90;;;;;;5092557;28;20020;-73
2021/11/23 08:34:28;;;;;;;4.07;2.87;;;1.80;99.90;;;;;;5092329;28;20411;-73
2021/11/23 08:36:54;;;;;;;4.73;2.90;;;1.70;99.90;;;;;;5092112;28;20085;-73
2021/11/23 08:39:20;;;;;;;6.77;3.07;;;1.80;99.90;;;;;;5073565;28;20024;-74
2021/11/23 08:41:47;;;;;;;5.30;2.90;;;1.90;99.90;;;;;;5092602;28;20433;-73
2021/11/23 08:44:14;;;;;;;7.60;3.40;;;2.00;99.90;;;;;;5091790;28;20020;-74
2021/11/23 08:46:40;;;;;;;4.97;2.83;;;2.10;99.90;;;;;;5092057;28;20376;-73
2021/11/23 08:49:05;;;;;;;5.87;3.40;;;2.10;99.90;;;;;;5092205;28;20028;-74
2021/11/23 08:51:35;;;;;;;6.20;3.13;;;2.20;99.90;;;;;;5091874;28;20500;-73
2021/11/23 08:54:02;;;;;;;6.00;2.73;;;2.30;99.90;;;;;;5074009;28;20026;-73
2021/11/23 08:56:34;;;;;;;5.50;3.10;;;2.30;99.90;;;;;;5065221;28;20028;-74
2021/11/23 08:59:01;;;;;;;5.10;3.20;;;2.30;99.90;;;;;;5073891;28;20040;-73
2021/11/23 09:01:28;;;;;;;6.87;3.30;;;2.40;99.90;;;;;;5073488;28;20283;-73
2021/11/23 09:03:54;;;;;;;6.63;3.20;;;2.40;99.90;;;;;;5074189;28;20085;-74
2021/11/23 09:06:23;;;;;;;7.03;3.23;;;2.40;99.90;;;;;;5073334;28;20028;-73
2021/11/23 09:08:54;;;;;;;13.23;6.33;;;2.50;99.90;;;;;;5073590;28;20077;-74
2021/11/23 09:11:20;;;;;;;4.93;3.20;;;2.50;99.90;;;;;;5067709;28;20046;-76
2021/11/23 09:13:46;;;;;;;5.63;3.40;;;2.50;99.90;;;;;;5074197;28;20016;-75
2021/11/23 09:16:12;;;;;;;8.77;3.60;;;2.50;99.90;;;;;;5091040;28;20020;-76
2021/11/23 09:18:37;;;;;;;6.93;3.40;;;2.50;99.90;;;;;;5083688;28;20032;-75
2021/11/23 09:21:03;;;;;;;7.30;3.20;;;2.60;99.90;;;;;;5073105;28;20380;-76
2021/11/23 09:23:29;;;;;;;5.93;3.27;;;2.70;99.90;;;;;;5069667;28;20623;-76
2021/11/23 09:25:54;;;;;;;7.07;3.33;;;2.70;99.90;;;;;;5070679;28;20555;-75
2021/11/23 09:28:20;;;;;;;6.20;3.53;;;2.80;99.90;;;;;;5070270;28;20043;-75
2021/11/23 09:30:46;;;;;;;5.63;3.67;;;2.90;99.90;;;;;;5090226;28;20028;-76
2021/11/23 09:33:14;;;;;;;6.20;3.73;;;3.00;99.90;;;;;;5090362;28;20028;-75
2021/11/23 09:35:40;;;;;;;6.73;3.37;;;3.00;99.90;;;;;;5072073;28;20499;-72
2021/11/23 09:38:07;;;;;;;5.17;3.13;;;3.00;99.60;;;;;;5072319;28;20024;-75
2021/11/23 09:40:33;;;;;;;6.83;3.67;;;3.10;99.80;;;;;;5088465;28;20097;-73
2021/11/23 09:42:59;;;;;;;6.73;3.17;;;3.10;99.50;;;;;;5070766;28;20186;-73
2021/11/23 09:45:25;;;;;;;4.97;3.20;;;3.20;99.60;;;;;;5070262;28;20381;-73
2021/11/23 09:47:51;;;;;;;6.47;3.50;;;3.20;99.70;;;;;;5070222;28;20035;-73
2021/11/23 09:50:17;;;;;;;6.33;3.43;;;3.30;99.40;;;;;;5088342;28;20477;-74
2021/11/23 09:52:43;;;;;;;6.30;3.90;;;3.30;99.10;;;;;;5092780;28;20024;-74
2021/11/23 09:55:12;;;;;;;6.77;3.60;;;3.40;98.90;;;;;;5074390;28;20469;-74
2021/11/23 09:57:38;;;;;;;7.97;3.53;;;3.40;99.10;;;;;;5075903;28;20030;-73
2021/11/23 10:00:22;;;;;;;7.43;3.50;;;3.50;99.50;;;;;;5073163;28;20401;-73
2021/11/23 10:02:48;;;;;;;6.50;3.60;;;3.50;98.80;;;;;;5069984;28;20051;-73
2021/11/23 10:05:15;;;;;;;5.73;3.10;;;3.60;98.60;;;;;;5091785;28;20047;-74
2021/11/23 10:07:45;;;;;;;5.87;3.07;;;3.60;98.30;;;;;;5075828;28;20040;-73
2021/11/23 10:10:14;;;;;;;5.50;3.40;;;3.70;98.60;;;;;;5072828;28;20205;-73
2021/11/23 10:12:40;;;;;;;6.37;3.37;;;3.70;98.90;;;;;;5073473;28;20016;-73
2021/11/23 10:15:16;;;;;;;5.20;3.33;;;3.70;98.30;;;;;;5073237;28;20476;-75
2021/11/23 10:17:48;;;;;;;5.70;3.03;;;3.70;98.50;;;;;;5073129;28;20093;-74
2021/11/23 10:20:25;;;;;;;;;;;3.70;98.50;;;;;;5091330;28;20020;-74
2021/11/23 10:22:51;;;;;;;7.17;2.93;;;3.80;98.60;;;;;;5090889;28;19907;-73
2021/11/23 10:25:16;;;;;;;5.07;3.20;;;3.90;98.60;;;;;;5072537;28;20035;-74
2021/11/23 10:27:43;;;;;;;5.03;3.10;;;4.00;98.70;;;;;;5072944;28;20476;-73
2021/11/23 10:30:10;;;;;;;5.83;3.10;;;4.10;98.30;;;;;;5073715;28;20032;-75
2021/11/23 10:32:47;;;;;;;4.27;2.97;;;4.10;98.10;;;;;;5093084;28;20110;-75
2021/11/23 10:35:18;;;;;;;5.00;3.20;;;4.10;98.40;;;;;;5072781;28;20024;-74
2021/11/23 10:37:45;;;;;;;4.45;2.90;;;4.10;97.90;;;;;;5060159;28;20086;-74
2021/11/23 10:40:21;;;;;;;4.60;2.93;;;4.20;97.80;;;;;;5080906;28;20039;-74
2021/11/23 10:42:53;;;;;;;4.53;2.93;;;4.30;97.40;;;;;;5072763;28;20533;-73
2021/11/23 10:45:20;;;;;;;5.38;3.25;;;4.30;97.30;;;;;;5089306;28;20020;-73
2021/11/23 10:47:48;;;;;;;5.10;2.97;;;4.40;97.30;;;;;;5091029;28;20038;-73
2021/11/23 10:50:16;;;;;;;6.67;3.10;;;4.40;97.50;;;;;;5071816;28;20039;-74
2021/11/23 10:52:46;;;;;;;4.83;2.97;;;4.40;97.80;;;;;;5072403;28;20039;-73
2021/11/23 10:55:25;;;;;;;4.67;2.90;;;4.50;97.80;;;;;;5074045;28;20104;-76
2021/11/23 10:57:53;;;;;;;6.77;3.10;;;4.60;96.60;;;;;;5083666;28;20400;-73
2021/11/23 11:00:20;;;;;;;5.23;2.97;;;4.60;96.20;;;;;;5072116;28;20031;-74
2021/11/23 11:02:46;;;;;;;4.87;3.10;;;4.70;96.20;;;;;;5071059;28;20020;-74
2021/11/23 11:05:15;;;;;;;11.27;3.03;;;4.70;96.50;;;;;;5072333;28;20032;-75
2021/11/23 11:07:44;;;;;;;5.03;3.03;;;4.70;95.80;;;;;;5083628;28;20186;-73
2021/11/23 11:10:10;;;;;;;3.87;2.67;;;4.80;96.10;;;;;;5090886;28;20061;-74
2021/11/23 11:12:37;;;;;;;5.37;3.00;;;4.90;95.60;;;;;;5091044;28;20530;-72
2021/11/23 11:15:07;;;;;;;5.60;2.80;;;4.90;95.60;;;;;;5072890;28;20077;-75
2021/11/23 11:17:36;;;;;;;4.37;2.77;;;5.00;96.20;;;;;;5072316;28;20469;-75
2021/11/23 11:20:05;;;;;;;3.80;2.50;;;5.00;95.30;;;;;;5091219;28;20414;-74
2021/11/23 11:22:31;;;;;;;9.83;3.70;;;5.00;94.70;;;;;;5074472;28;20024;-73
2021/11/23 11:25:18;;;;;;;12.00;3.10;;;5.10;95.00;;;;;;5072293;28;20023;-74
2021/11/23 11:27:47;;;;;;;5.87;2.70;;;5.10;95.40;;;;;;5073358;28;20035;-73
2021/11/23 11:30:33;;;;;;;4.77;2.60;;;5.20;95.70;;;;;;5068089;28;20441;-72
2021/11/23 11:33:02;;;;;;;3.70;2.30;;;5.20;95.30;;;;;;5085134;28;20445;-73
2021/11/23 11:35:39;;;;;;;5.37;2.70;;;5.30;95.60;;;;;;5070795;28;20094;-72
2021/11/23 11:38:29;;;;;;;3.27;2.30;;;5.40;95.20;;;;;;5055720;28;20198;-73
2021/11/23 11:41:02;;;;;;;4.00;2.17;;;5.50;95.00;;;;;;5071420;28;20024;-73
2021/11/23 11:43:46;;;;;;;4.97;2.43;;;5.50;94.80;;;;;;5091081;28;20368;-73
2021/11/23 11:46:31;;;;;;;4.43;2.53;;;5.60;94.20;;;;;;5073222;28;20476;-77
2021/11/23 11:48:57;;;;;;;4.90;3.10;;;5.70;93.90;;;;;;5074593;28;20027;-73
2021/11/23 11:51:31;;;;;;;3.60;2.10;;;5.70;94.30;;;;;;5073904;28;20031;-72
2021/11/23 11:54:00;;;;;;;4.10;2.00;;;5.90;92.70;;;;;;5092858;28;20021;-71
2021/11/23 11:56:34;;;;;;;3.13;1.83;;;6.10;91.20;;;;;;5091903;28;20028;-72
2021/11/23 11:59:01;;;;;;;3.80;1.80;;;6.30;91.10;;;;;;5074770;28;20131;-71
2021/11/23 12:01:34;;;;;;;2.90;1.80;;;6.50;89.80;;;;;;5085364;28;20116;-71
2021/11/23 12:04:02;;;;;;;2.87;1.90;;;6.70;89.00;;;;;;5092633;28;20056;-72
2021/11/23 12:06:56;;;;;;;3.57;1.97;;;7.00;90.00;;;;;;5091710;28;20047;-77
2021/11/23 12:09:25;;;;;;;5.77;1.97;;;7.20;83.20;;;;;;5071412;28;20032;-73
2021/11/23 12:11:51;;;;;;;3.23;1.67;;;7.40;84.40;;;;;;5071111;28;20035;-74
2021/11/23 12:14:21;;;;;;;3.57;1.60;;;7.60;85.60;;;;;;5088147;28;20040;-72
2021/11/23 12:16:56;;;;;;;3.83;2.10;;;7.70;82.40;;;;;;5071909;28;20028;-73
2021/11/23 12:19:42;;;;;;;4.50;1.33;;;7.80;82.90;;;;;;5090468;28;20035;-72
2021/11/23 12:22:20;;;;;;;2.45;1.70;;;8.00;81.80;;;;;;5090783;28;20024;-74
2021/11/23 12:24:46;;;;;;;2.97;1.60;;;8.00;79.40;;;;;;5089957;28;20024;-74
2021/11/23 12:27:16;;;;;;;2.00;1.58;;;8.00;80.30;;;;;;5088226;28;20020;-74
2021/11/23 12:29:44;;;;;;;4.37;1.27;;;7.90;78.70;;;;;;5070765;28;20028;-74
2021/11/23 12:32:11;;;;;;;2.03;1.40;;;7.80;79.00;;;;;;5087343;28;20469;-74
2021/11/23 12:34:48;;;;;;;3.42;1.40;;;7.90;81.20;;;;;;5089343;28;20035;-72
2021/11/23 12:37:14;;;;;;;3.80;1.27;;;8.00;78.60;;;;;;5069854;28;20031;-73
2021/11/23 12:39:39;;;;;;;3.15;1.45;;;8.00;80.60;;;;;;5070966;28;20076;-72
2021/11/23 12:42:08;;;;;;;1.70;1.08;;;8.00;79.80;;;;;;5070659;28;20020;-73
2021/11/23 12:44:41;;;;;;;1.75;1.20;;;8.00;78.90;;;;;;5088963;28;20008;-74
2021/11/23 12:47:20;;;;;;;1.77;1.00;;;8.10;78.20;;;;;;5070718;28;20054;-74
2021/11/23 12:50:03;;;;;;;1.90;1.02;;;8.10;77.20;;;;;;5070780;28;20107;-74
2021/11/23 12:52:33;;;;;;;2.03;1.30;;;8.20;78.00;;;;;;5068522;28;20032;-74
2021/11/23 12:54:59;;;;;;;1.43;1.03;;;8.20;77.80;;;;;;5090088;28;20089;-73
2021/11/23 12:57:25;;;;;;;1.48;0.98;;;8.20;77.70;;;;;;5072355;28;20473;-72